Time;durP1;ratioP1;P1;durP2;ratioP2;P2;SDS_P1;SDS_P2;PMS_P1;PMS_P2;Temp;Humidity;BMP_temperature;BMP_pressure;BME280_temperature;BME280_humidity;BME280_pressure;Samples;Min_cycle;Max_cycle;Signal;HPM_P1;HPM_P2
2021/08/08 00:00:24;;;;;;;1.43;1.33;;;17.90;99.90;;;;;;4920445;29;20598;-71
2021/08/08 00:02:49;;;;;;;1.43;1.20;;;17.90;99.90;;;;;;4920233;29;20274;-71
2021/08/08 00:05:15;;;;;;;1.30;1.20;;;17.90;99.90;;;;;;4919826;29;20178;-71
2021/08/08 00:07:41;;;;;;;1.17;1.03;;;17.90;99.90;;;;;;4919915;29;20310;-71
2021/08/08 00:10:09;;;;;;;2.30;1.50;;;17.90;99.90;;;;;;4919814;29;20682;-71
2021/08/08 00:12:35;;;;;;;5.20;1.63;;;17.90;99.90;;;;;;4919275;29;20450;-72
2021/08/08 00:15:01;;;;;;;1.50;1.40;;;17.90;99.90;;;;;;4919676;29;20415;-71
2021/08/08 00:17:27;;;;;;;2.70;1.17;;;17.90;99.90;;;;;;4918838;29;20415;-71
2021/08/08 00:19:53;;;;;;;2.50;1.40;;;17.90;99.90;;;;;;4920006;29;20179;-71
2021/08/08 00:22:19;;;;;;;3.60;1.40;;;17.90;99.90;;;;;;4919614;29;20264;-71
2021/08/08 00:24:44;;;;;;;1.90;1.43;;;17.90;99.90;;;;;;4919491;29;20542;-71
2021/08/08 00:27:10;;;;;;;2.00;1.47;;;17.90;99.90;;;;;;4919781;29;20267;-71
2021/08/08 00:29:35;;;;;;;2.10;1.33;;;17.80;99.90;;;;;;4919437;29;20258;-71
2021/08/08 00:32:01;;;;;;;1.97;1.30;;;17.80;99.90;;;;;;4919512;29;20196;-71
2021/08/08 00:34:27;;;;;;;1.50;1.30;;;17.80;99.90;;;;;;4919598;29;20203;-71
2021/08/08 00:36:52;;;;;;;3.37;1.60;;;17.80;99.90;;;;;;4919498;29;20426;-71
2021/08/08 00:39:20;;;;;;;1.57;1.30;;;17.80;99.90;;;;;;4920002;29;20643;-71
2021/08/08 00:41:46;;;;;;;1.93;1.40;;;17.80;99.90;;;;;;4919725;29;20569;-71
2021/08/08 00:44:12;;;;;;;4.63;1.50;;;17.70;99.90;;;;;;4919055;29;20442;-71
2021/08/08 00:46:37;;;;;;;1.87;1.10;;;17.70;99.90;;;;;;4919177;29;20708;-71
2021/08/08 00:49:03;;;;;;;2.57;2.10;;;17.80;99.90;;;;;;4917697;29;20572;-71
2021/08/08 00:51:30;;;;;;;2.17;1.80;;;17.70;99.90;;;;;;4919611;29;20245;-71
2021/08/08 00:53:55;;;;;;;1.40;1.30;;;17.70;99.90;;;;;;4919222;29;20191;-71
2021/08/08 00:56:21;;;;;;;1.60;1.50;;;17.70;99.90;;;;;;4919951;29;20407;-70
2021/08/08 00:58:46;;;;;;;1.60;1.40;;;17.60;99.90;;;;;;4919360;29;20171;-71
2021/08/08 01:01:17;;;;;;;3.13;1.90;;;17.70;99.90;;;;;;4919259;29;20295;-71
2021/08/08 01:03:44;;;;;;;6.27;1.80;;;17.60;99.90;;;;;;4919092;29;20225;-72
2021/08/08 01:06:14;;;;;;;4.57;2.13;;;17.60;99.90;;;;;;4919056;29;20450;-71
2021/08/08 01:08:47;;;;;;;3.30;1.80;;;17.60;99.90;;;;;;4919149;29;20446;-71
2021/08/08 01:11:13;;;;;;;2.33;1.80;;;17.60;99.90;;;;;;4919006;29;20415;-71
2021/08/08 01:13:40;;;;;;;2.77;2.03;;;17.60;99.90;;;;;;4918632;29;20462;-71
2021/08/08 01:16:07;;;;;;;3.20;2.20;;;17.50;99.90;;;;;;4918735;29;20505;-71
2021/08/08 01:18:33;;;;;;;3.40;2.03;;;17.50;99.90;;;;;;4918819;29;20506;-70
2021/08/08 01:21:00;;;;;;;2.20;2.00;;;17.60;99.90;;;;;;4919595;29;20529;-70
2021/08/08 01:23:31;;;;;;;2.47;1.97;;;17.60;99.90;;;;;;4918924;29;20198;-71
2021/08/08 01:25:57;;;;;;;3.00;2.50;;;17.60;99.90;;;;;;4918719;29;20940;-71
2021/08/08 01:28:22;;;;;;;2.43;2.23;;;17.50;99.90;;;;;;4918692;29;20795;-71
2021/08/08 01:30:48;;;;;;;4.40;2.43;;;17.50;99.90;;;;;;4917686;29;20471;-71
2021/08/08 01:33:14;;;;;;;3.53;2.57;;;17.40;99.90;;;;;;4918692;29;20207;-71
2021/08/08 01:35:41;;;;;;;4.17;2.43;;;17.40;99.90;;;;;;4918118;29;20174;-71
2021/08/08 01:38:08;;;;;;;3.00;2.30;;;17.40;99.90;;;;;;4918446;29;20181;-71
2021/08/08 01:40:57;;;;;;;3.20;2.90;;;17.40;99.90;;;;;;4918479;29;20760;-71
2021/08/08 01:43:27;;;;;;;4.40;3.27;;;17.40;99.90;;;;;;4918698;29;20963;-71
2021/08/08 01:46:03;;;;;;;3.00;2.50;;;17.30;99.90;;;;;;4918373;29;20450;-71
2021/08/08 01:48:31;;;;;;;4.63;3.00;;;17.40;99.90;;;;;;4918755;29;20395;-71
2021/08/08 01:50:58;;;;;;;3.17;2.80;;;17.40;99.90;;;;;;4918139;29;20434;-71
2021/08/08 01:53:25;;;;;;;3.00;2.70;;;17.40;99.90;;;;;;4918030;29;20801;-71
2021/08/08 01:55:50;;;;;;;3.63;2.80;;;17.40;99.90;;;;;;4918058;29;20420;-71
2021/08/08 01:58:16;;;;;;;3.90;2.83;;;17.40;99.90;;;;;;4917976;29;20441;-71
2021/08/08 02:00:42;;;;;;;3.10;2.63;;;17.40;99.90;;;;;;4917987;29;20171;-71
2021/08/08 02:03:09;;;;;;;3.30;2.50;;;17.40;99.90;;;;;;4917948;29;20198;-71
2021/08/08 02:05:34;;;;;;;2.47;2.17;;;17.40;99.90;;;;;;4917621;29;20249;-71
2021/08/08 02:08:00;;;;;;;3.67;2.93;;;17.30;99.90;;;;;;4917960;29;20451;-71
2021/08/08 02:10:26;;;;;;;2.97;2.73;;;17.40;99.90;;;;;;4917725;29;20190;-72
2021/08/08 02:12:52;;;;;;;3.17;2.67;;;17.40;99.90;;;;;;4917921;29;20600;-71
2021/08/08 02:15:17;;;;;;;2.87;2.67;;;17.40;99.90;;;;;;4917417;29;20844;-71
2021/08/08 02:17:43;;;;;;;3.83;2.40;;;17.30;99.90;;;;;;4917958;29;20193;-71
2021/08/08 02:20:11;;;;;;;3.20;2.83;;;17.30;99.90;;;;;;4916323;29;20419;-71
2021/08/08 02:22:38;;;;;;;3.70;2.60;;;17.30;99.90;;;;;;4917559;29;20696;-71
2021/08/08 02:25:04;;;;;;;3.40;2.80;;;17.30;99.90;;;;;;4915878;29;20426;-71
2021/08/08 02:27:31;;;;;;;3.30;2.70;;;17.40;99.90;;;;;;4917586;29;20171;-71
2021/08/08 02:29:56;;;;;;;7.53;3.03;;;17.40;99.90;;;;;;4917282;29;20472;-71
2021/08/08 02:32:22;;;;;;;2.50;2.30;;;17.40;99.90;;;;;;4917447;29;20498;-71
2021/08/08 02:34:48;;;;;;;4.60;2.80;;;17.30;99.90;;;;;;4917303;29;20175;-71
2021/08/08 02:37:13;;;;;;;6.30;2.63;;;17.30;99.90;;;;;;4917190;29;20274;-71
2021/08/08 02:39:39;;;;;;;3.83;2.60;;;17.20;99.90;;;;;;4917366;29;20214;-71
2021/08/08 02:42:04;;;;;;;5.73;2.60;;;17.30;99.90;;;;;;4916520;29;20182;-71
2021/08/08 02:44:30;;;;;;;5.80;3.03;;;17.20;99.90;;;;;;4917610;29;20205;-71
2021/08/08 02:46:55;;;;;;;4.57;2.50;;;17.20;99.90;;;;;;4917546;29;20182;-71
2021/08/08 02:49:21;;;;;;;5.67;3.43;;;17.30;99.90;;;;;;4917735;29;20199;-71
2021/08/08 02:51:46;;;;;;;2.57;2.37;;;17.30;99.90;;;;;;4918038;29;20195;-70
2021/08/08 02:54:15;;;;;;;5.07;2.90;;;17.20;99.90;;;;;;4917379;29;20195;-71
2021/08/08 02:56:43;;;;;;;3.53;2.80;;;17.30;99.90;;;;;;4917158;29;20254;-71
2021/08/08 02:59:09;;;;;;;4.60;3.03;;;17.30;99.90;;;;;;4917220;29;20426;-71
2021/08/08 03:01:35;;;;;;;5.67;2.60;;;17.20;99.90;;;;;;4917130;29;20442;-71
2021/08/08 03:04:00;;;;;;;4.30;3.03;;;17.20;99.90;;;;;;4917198;29;20195;-71
2021/08/08 03:06:26;;;;;;;9.07;3.50;;;17.20;99.90;;;;;;4925561;29;20209;-71
2021/08/08 03:08:52;;;;;;;3.90;2.70;;;17.20;99.90;;;;;;4935825;29;20190;-71
2021/08/08 03:11:18;;;;;;;8.10;3.50;;;17.20;99.90;;;;;;4936256;29;20178;-71
2021/08/08 03:13:43;;;;;;;5.73;3.07;;;17.20;99.90;;;;;;4935583;29;20861;-71
2021/08/08 03:16:09;;;;;;;6.17;3.37;;;17.20;99.90;;;;;;4935689;29;20425;-71
2021/08/08 03:18:34;;;;;;;4.10;3.13;;;17.20;99.90;;;;;;4935896;29;20284;-71
2021/08/08 03:21:01;;;;;;;4.73;2.87;;;17.10;99.90;;;;;;4936091;29;20575;-71
2021/08/08 03:23:27;;;;;;;5.47;3.50;;;17.10;99.90;;;;;;4935822;29;20281;-71
2021/08/08 03:25:52;;;;;;;5.03;3.30;;;17.00;99.90;;;;;;4934941;29;20496;-71
2021/08/08 03:28:18;;;;;;;4.57;3.27;;;17.00;99.90;;;;;;4936304;29;20174;-71
2021/08/08 03:30:44;;;;;;;4.10;3.40;;;17.00;99.90;;;;;;4935392;29;20602;-71
2021/08/08 03:33:09;;;;;;;5.03;2.90;;;16.90;99.90;;;;;;4918663;29;20195;-71
2021/08/08 03:35:35;;;;;;;7.87;3.57;;;17.00;99.90;;;;;;4935919;29;20201;-71
2021/08/08 03:38:01;;;;;;;3.80;2.77;;;16.90;99.90;;;;;;4936269;29;20210;-71
2021/08/08 03:40:27;;;;;;;7.10;3.23;;;16.90;99.90;;;;;;4936191;29;21036;-71
2021/08/08 03:42:53;;;;;;;3.63;2.97;;;16.90;99.90;;;;;;4935596;29;20462;-70
2021/08/08 03:45:18;;;;;;;5.47;3.20;;;16.90;99.90;;;;;;4935711;29;20268;-71
2021/08/08 03:47:44;;;;;;;3.57;3.00;;;16.90;99.90;;;;;;4935928;29;20273;-70
2021/08/08 03:50:10;;;;;;;7.60;3.10;;;17.00;99.90;;;;;;4935866;29;20198;-69
2021/08/08 03:52:36;;;;;;;5.13;3.67;;;16.90;99.90;;;;;;4937695;29;20221;-70
2021/08/08 03:55:02;;;;;;;6.47;3.33;;;16.90;99.90;;;;;;4938557;29;20512;-70
2021/08/08 03:57:27;;;;;;;3.90;3.00;;;16.90;99.90;;;;;;4939631;29;20275;-69
2021/08/08 03:59:53;;;;;;;10.03;3.80;;;16.90;99.90;;;;;;4939554;29;20206;-70
2021/08/08 04:02:18;;;;;;;7.30;3.20;;;16.90;99.90;;;;;;4939975;29;20679;-70
2021/08/08 04:04:44;;;;;;;4.10;3.00;;;16.90;99.90;;;;;;4939212;29;20261;-70
2021/08/08 04:07:09;;;;;;;5.67;3.33;;;16.80;99.90;;;;;;4939891;29;20202;-70
2021/08/08 04:09:35;;;;;;;6.03;3.07;;;16.80;99.90;;;;;;4939389;29;20198;-70
2021/08/08 04:12:03;;;;;;;6.20;2.93;;;16.80;99.90;;;;;;4939735;29;20173;-70
2021/08/08 04:14:29;;;;;;;7.67;3.10;;;16.70;99.90;;;;;;4938919;29;20210;-71
2021/08/08 04:16:55;;;;;;;6.27;3.80;;;16.70;99.90;;;;;;4939968;29;20469;-70
2021/08/08 04:19:20;;;;;;;3.77;2.93;;;16.70;99.90;;;;;;4938855;29;20224;-70
2021/08/08 04:21:46;;;;;;;5.73;2.97;;;16.80;99.90;;;;;;4939616;29;20190;-70
2021/08/08 04:24:11;;;;;;;6.73;3.10;;;16.80;99.90;;;;;;4938812;29;20249;-70
2021/08/08 04:26:37;;;;;;;6.40;3.00;;;16.80;99.90;;;;;;4939260;29;20210;-69
2021/08/08 04:29:02;;;;;;;6.13;3.10;;;16.80;99.90;;;;;;4938971;29;20206;-71
2021/08/08 04:31:28;;;;;;;5.95;3.55;;;16.80;99.90;;;;;;4938395;29;20452;-70
2021/08/08 04:33:53;;;;;;;9.03;3.23;;;16.80;99.90;;;;;;4938819;29;20289;-70
2021/08/08 04:36:19;;;;;;;6.23;3.67;;;16.80;99.90;;;;;;4939267;29;20206;-70
2021/08/08 04:38:44;;;;;;;7.60;3.40;;;16.80;99.90;;;;;;4938764;29;20194;-70
2021/08/08 04:41:10;;;;;;;6.13;2.93;;;16.90;99.90;;;;;;4938837;29;20650;-70
2021/08/08 04:43:36;;;;;;;4.67;3.17;;;16.90;99.90;;;;;;4938927;29;20198;-70
2021/08/08 04:46:01;;;;;;;9.93;3.20;;;16.90;99.90;;;;;;4938398;29;20560;-70
2021/08/08 04:48:27;;;;;;;4.03;3.10;;;16.90;99.90;;;;;;4938792;29;20431;-70
2021/08/08 04:50:53;;;;;;;5.97;3.00;;;16.90;99.90;;;;;;4938823;29;20556;-70
2021/08/08 04:53:19;;;;;;;6.10;3.07;;;16.90;99.90;;;;;;4938581;29;20262;-70
2021/08/08 04:55:45;;;;;;;4.97;3.33;;;16.90;99.90;;;;;;4938354;29;20446;-70
2021/08/08 04:58:11;;;;;;;5.23;3.20;;;16.90;99.90;;;;;;4938605;29;20177;-71
2021/08/08 05:00:37;;;;;;;8.30;3.40;;;16.90;99.90;;;;;;4938376;29;20414;-70
2021/08/08 05:03:03;;;;;;;6.55;3.55;;;16.90;99.90;;;;;;4938001;29;20449;-70
2021/08/08 05:05:29;;;;;;;4.30;2.80;;;16.90;99.90;;;;;;4937860;29;20170;-70
2021/08/08 05:07:55;;;;;;;8.13;3.13;;;16.80;99.90;;;;;;4937381;29;20548;-71
2021/08/08 05:10:24;;;;;;;6.40;3.80;;;16.70;99.90;;;;;;4937020;29;20441;-70
2021/08/08 05:12:54;;;;;;;7.83;3.40;;;16.80;99.90;;;;;;4938163;29;20715;-71
2021/08/08 05:15:20;;;;;;;8.80;4.00;;;16.70;99.90;;;;;;4938043;29;20410;-70
2021/08/08 05:17:46;;;;;;;8.60;3.47;;;16.70;99.90;;;;;;4938160;29;20418;-70
2021/08/08 05:20:12;;;;;;;10.73;3.57;;;16.80;99.90;;;;;;4937671;29;20509;-70
2021/08/08 05:22:38;;;;;;;5.83;3.43;;;16.70;99.90;;;;;;4937890;29;20202;-70
2021/08/08 05:25:04;;;;;;;4.60;2.93;;;16.80;99.90;;;;;;4937919;29;20529;-70
2021/08/08 05:27:33;;;;;;;6.07;3.37;;;16.90;99.90;;;;;;4938127;29;20175;-71
2021/08/08 05:29:59;;;;;;;12.43;3.47;;;16.90;99.90;;;;;;4937784;29;20454;-70
2021/08/08 05:32:25;;;;;;;7.40;2.87;;;16.80;99.90;;;;;;4937989;29;20450;-70
2021/08/08 05:34:51;;;;;;;5.17;3.70;;;16.80;99.90;;;;;;4937401;29;20915;-71
2021/08/08 05:37:16;;;;;;;5.73;3.60;;;16.80;99.90;;;;;;4936904;29;20421;-70
2021/08/08 05:39:42;;;;;;;5.30;3.83;;;16.80;99.90;;;;;;4937865;29;20179;-71
2021/08/08 05:42:07;;;;;;;6.93;3.63;;;16.80;99.90;;;;;;4937364;29;20429;-69
2021/08/08 05:44:37;;;;;;;6.17;3.63;;;16.90;99.90;;;;;;4937371;29;20186;-69
2021/08/08 05:47:04;;;;;;;6.37;3.50;;;16.80;99.90;;;;;;4938290;29;20194;-70
2021/08/08 05:49:30;;;;;;;5.43;3.43;;;16.90;99.90;;;;;;4937907;29;20468;-71
2021/08/08 05:51:56;;;;;;;5.90;2.87;;;16.90;99.90;;;;;;4937280;29;20414;-71
2021/08/08 05:54:21;;;;;;;7.10;3.33;;;16.90;99.90;;;;;;4937028;29;20197;-72
2021/08/08 05:56:47;;;;;;;7.00;3.90;;;16.90;99.90;;;;;;4937945;29;20202;-71
2021/08/08 05:59:12;;;;;;;6.10;3.00;;;16.90;99.90;;;;;;4937294;29;20197;-71
2021/08/08 06:01:38;;;;;;;6.73;3.33;;;16.80;99.90;;;;;;4937027;29;20178;-72
2021/08/08 06:04:03;;;;;;;4.40;2.90;;;16.90;99.90;;;;;;4936904;29;20230;-71
2021/08/08 06:06:31;;;;;;;8.33;3.40;;;16.90;99.90;;;;;;4937619;29;20183;-72
2021/08/08 06:08:57;;;;;;;7.80;3.20;;;16.90;99.90;;;;;;4937127;29;20175;-71
2021/08/08 06:11:22;;;;;;;4.10;3.13;;;16.90;99.90;;;;;;4937204;29;20417;-71
2021/08/08 06:13:48;;;;;;;7.17;3.73;;;16.90;99.90;;;;;;4936945;29;20213;-71
2021/08/08 06:16:13;;;;;;;4.57;3.23;;;16.90;99.90;;;;;;4935543;29;20232;-71
2021/08/08 06:18:40;;;;;;;7.17;3.90;;;17.00;99.90;;;;;;4936195;29;20780;-71
2021/08/08 06:21:05;;;;;;;5.93;3.50;;;17.10;99.90;;;;;;4938162;29;20198;-71
2021/08/08 06:23:31;;;;;;;6.70;3.13;;;17.00;99.90;;;;;;4937653;29;20874;-71
2021/08/08 06:25:56;;;;;;;5.00;2.83;;;17.10;99.90;;;;;;4937990;29;20282;-71
2021/08/08 06:28:22;;;;;;;5.50;2.87;;;17.10;99.90;;;;;;4937143;29;20185;-71
2021/08/08 06:30:47;;;;;;;5.97;3.43;;;17.10;99.90;;;;;;4936375;29;20213;-71
2021/08/08 06:33:16;;;;;;;5.23;3.00;;;17.20;99.90;;;;;;4936357;29;20659;-71
2021/08/08 06:35:41;;;;;;;11.10;3.40;;;17.30;99.90;;;;;;4936236;29;20170;-71
2021/08/08 06:38:07;;;;;;;4.10;3.00;;;17.40;99.90;;;;;;4937043;29;20414;-71
2021/08/08 06:40:32;;;;;;;4.20;2.90;;;17.40;99.90;;;;;;4937284;29;20734;-71
2021/08/08 06:43:00;;;;;;;4.93;3.20;;;17.50;99.90;;;;;;4936173;29;20679;-71
2021/08/08 06:45:25;;;;;;;4.23;2.70;;;17.50;99.90;;;;;;4934363;29;20187;-71
2021/08/08 06:47:51;;;;;;;8.63;3.80;;;17.50;99.90;;;;;;4928185;29;20484;-71
2021/08/08 06:50:16;;;;;;;7.37;3.10;;;17.50;99.90;;;;;;4917575;29;20207;-71
2021/08/08 06:52:42;;;;;;;6.23;2.97;;;17.60;99.90;;;;;;4917378;29;20473;-71
2021/08/08 06:55:08;;;;;;;6.50;3.37;;;17.60;99.90;;;;;;4917536;29;20186;-71
2021/08/08 06:57:34;;;;;;;5.13;2.80;;;17.60;99.90;;;;;;4917444;29;20194;-71
2021/08/08 06:59:59;;;;;;;5.87;2.87;;;17.70;99.90;;;;;;4917438;29;20563;-71
2021/08/08 07:02:25;;;;;;;3.77;3.10;;;17.70;99.90;;;;;;4917607;29;20271;-70
2021/08/08 07:04:51;;;;;;;5.50;4.47;;;17.60;99.90;;;;;;4917073;29;20686;-70
2021/08/08 07:07:16;;;;;;;4.10;2.90;;;17.50;99.90;;;;;;4917515;29;20194;-71
2021/08/08 07:09:43;;;;;;;8.30;3.50;;;17.60;99.90;;;;;;4917327;29;20470;-71
2021/08/08 07:12:09;;;;;;;3.60;2.80;;;17.60;99.90;;;;;;4916113;29;20209;-71
2021/08/08 07:14:35;;;;;;;3.50;2.90;;;17.60;99.90;;;;;;4917299;29;20771;-71
2021/08/08 07:17:01;;;;;;;5.17;3.20;;;17.50;99.90;;;;;;4920371;29;20466;-71
2021/08/08 07:19:27;;;;;;;4.60;2.97;;;17.50;99.90;;;;;;4915620;29;20443;-70
2021/08/08 07:21:53;;;;;;;6.23;3.07;;;17.50;99.90;;;;;;4927669;29;20438;-71
2021/08/08 07:24:20;;;;;;;4.53;3.67;;;17.50;99.90;;;;;;4917378;29;20615;-71
2021/08/08 07:26:46;;;;;;;5.43;2.80;;;17.50;99.90;;;;;;4917682;29;20415;-71
2021/08/08 07:29:11;;;;;;;4.93;2.88;;;17.50;99.90;;;;;;4920693;29;20490;-71
2021/08/08 07:31:37;;;;;;;7.47;3.40;;;17.50;99.90;;;;;;4921015;29;20544;-71
2021/08/08 07:34:02;;;;;;;6.00;3.37;;;17.60;99.90;;;;;;4921016;29;20289;-71
2021/08/08 07:36:28;;;;;;;5.37;3.70;;;17.60;99.90;;;;;;4920835;29;20171;-71
2021/08/08 07:38:53;;;;;;;5.90;3.97;;;17.60;99.90;;;;;;4921132;29;20182;-71
2021/08/08 07:41:19;;;;;;;4.33;3.27;;;17.60;99.90;;;;;;4920959;29;20540;-71
2021/08/08 07:43:44;;;;;;;9.43;3.37;;;17.60;99.90;;;;;;4921381;29;20191;-70
2021/08/08 07:46:10;;;;;;;7.47;3.40;;;17.70;99.90;;;;;;4921174;29;20187;-71
2021/08/08 07:48:35;;;;;;;5.73;3.17;;;17.70;99.90;;;;;;4920845;29;20175;-71
2021/08/08 07:51:01;;;;;;;7.87;3.93;;;17.60;99.90;;;;;;4926842;29;20594;-71
2021/08/08 07:53:58;;;;;;;6.57;3.33;;;17.70;99.90;;;;;;4923982;29;20207;-70
2021/08/08 07:56:28;;;;;;;6.43;2.77;;;17.80;99.90;;;;;;4911393;29;20660;-70
2021/08/08 07:58:54;;;;;;;8.90;3.23;;;17.80;99.90;;;;;;4915468;29;20467;-71
2021/08/08 08:01:21;;;;;;;6.37;3.70;;;17.90;99.90;;;;;;4921015;29;20552;-71
2021/08/08 08:03:46;;;;;;;6.33;3.77;;;18.00;99.90;;;;;;4920819;29;20220;-71
2021/08/08 08:06:12;;;;;;;5.63;3.20;;;18.00;99.90;;;;;;4920294;29;20972;-71
2021/08/08 08:08:37;;;;;;;6.97;3.03;;;18.00;99.90;;;;;;4904083;29;20181;-71
2021/08/08 08:11:03;;;;;;;6.57;3.30;;;18.10;99.90;;;;;;4939425;29;20688;-70
2021/08/08 08:13:29;;;;;;;4.83;3.23;;;18.20;99.90;;;;;;4938685;29;20213;-70
2021/08/08 08:15:54;;;;;;;3.37;2.97;;;18.30;99.90;;;;;;4935431;29;20186;-70
2021/08/08 08:18:20;;;;;;;6.40;3.27;;;18.40;99.90;;;;;;4923773;29;20183;-71
2021/08/08 08:20:45;;;;;;;4.50;3.00;;;18.50;99.90;;;;;;4929312;29;20230;-71
2021/08/08 08:23:11;;;;;;;3.30;2.93;;;18.60;99.90;;;;;;4920297;29;20657;-71
2021/08/08 08:25:37;;;;;;;8.50;3.50;;;18.50;99.90;;;;;;4919880;29;20293;-71
2021/08/08 08:28:03;;;;;;;3.70;3.07;;;18.40;99.90;;;;;;4933912;29;20261;-70
2021/08/08 08:30:28;;;;;;;6.53;3.50;;;18.40;99.90;;;;;;4938917;29;20540;-70
2021/08/08 08:32:54;;;;;;;4.40;3.43;;;18.40;99.90;;;;;;4930937;29;20253;-71
2021/08/08 08:35:20;;;;;;;7.70;3.30;;;18.30;99.90;;;;;;4926029;29;20175;-70
2021/08/08 08:37:45;;;;;;;4.63;2.97;;;18.40;99.90;;;;;;4931784;29;20190;-71
2021/08/08 08:40:11;;;;;;;5.43;3.17;;;18.40;99.90;;;;;;4921952;29;20187;-70
2021/08/08 08:42:48;;;;;;;3.30;2.80;;;18.40;99.90;;;;;;4926319;29;20232;-70
2021/08/08 08:45:14;;;;;;;5.50;3.40;;;18.50;99.90;;;;;;4938743;29;20394;-70
2021/08/08 08:47:41;;;;;;;5.10;3.30;;;18.60;99.90;;;;;;4938021;29;20434;-70
2021/08/08 08:50:08;;;;;;;5.77;3.47;;;18.70;99.90;;;;;;4939018;29;20639;-70
2021/08/08 08:52:35;;;;;;;8.63;3.27;;;18.80;99.90;;;;;;4920379;29;20455;-70
2021/08/08 08:55:02;;;;;;;5.43;3.20;;;18.90;99.90;;;;;;4938128;29;20395;-69
2021/08/08 08:57:28;;;;;;;6.20;3.77;;;19.00;99.90;;;;;;4938567;29;20947;-69
2021/08/08 08:59:54;;;;;;;6.93;3.00;;;19.10;99.90;;;;;;4938785;29;20422;-70
2021/08/08 09:02:20;;;;;;;6.90;3.83;;;19.40;99.90;;;;;;4921195;29;20418;-69
2021/08/08 09:04:46;;;;;;;7.28;3.30;;;19.60;99.90;;;;;;4937891;29;20428;-70
2021/08/08 09:07:11;;;;;;;7.63;3.60;;;19.70;99.40;;;;;;4938633;29;20202;-70
2021/08/08 09:09:37;;;;;;;6.53;3.00;;;19.80;99.10;;;;;;4937001;29;20453;-71
2021/08/08 09:12:03;;;;;;;8.43;3.70;;;19.60;98.50;;;;;;4938365;29;20154;-70
2021/08/08 09:14:32;;;;;;;4.57;3.60;;;19.60;98.50;;;;;;4937978;29;20461;-70
2021/08/08 09:16:57;;;;;;;6.63;3.20;;;19.60;98.40;;;;;;4932028;29;20422;-71
2021/08/08 09:19:25;;;;;;;11.33;3.33;;;19.50;98.20;;;;;;4927016;29;20445;-69
2021/08/08 09:21:52;;;;;;;8.20;3.37;;;19.50;98.30;;;;;;4932164;29;20187;-70
2021/08/08 09:24:35;;;;;;;7.17;2.80;;;19.50;98.50;;;;;;4930297;29;20454;-70
2021/08/08 09:27:09;;;;;;;4.37;3.30;;;19.50;98.50;;;;;;4930967;29;20783;-70
2021/08/08 09:29:36;;;;;;;6.37;3.17;;;19.50;98.40;;;;;;4919009;29;20467;-71
2021/08/08 09:32:03;;;;;;;7.90;3.43;;;19.50;98.60;;;;;;4933968;29;20456;-70
2021/08/08 09:34:37;;;;;;;6.10;4.10;;;19.50;98.30;;;;;;4937568;29;20441;-70
2021/08/08 09:37:06;;;;;;;4.80;3.30;;;19.50;98.40;;;;;;4937623;29;20418;-70
2021/08/08 09:39:37;;;;;;;5.70;3.00;;;19.50;98.30;;;;;;4938077;29;20836;-71
2021/08/08 09:42:16;;;;;;;4.57;2.80;;;19.50;98.20;;;;;;4938696;29;20757;-71
2021/08/08 09:45:06;;;;;;;4.53;2.90;;;19.40;98.30;;;;;;4938102;29;20401;-70
2021/08/08 09:47:53;;;;;;;6.80;3.03;;;19.50;98.30;;;;;;4936477;29;20497;-70
2021/08/08 09:50:25;;;;;;;5.43;3.50;;;19.50;97.90;;;;;;4937474;29;20450;-69
2021/08/08 09:52:56;;;;;;;9.83;2.93;;;19.50;97.80;;;;;;4936417;29;20446;-69
2021/08/08 09:55:37;;;;;;;12.00;3.00;;;19.60;98.30;;;;;;4920459;29;20464;-69
2021/08/08 09:58:05;;;;;;;4.97;3.10;;;19.60;98.40;;;;;;4936452;29;20462;-69
2021/08/08 10:00:36;;;;;;;4.27;2.57;;;19.70;97.20;;;;;;4937387;29;20518;-69
2021/08/08 10:03:07;;;;;;;5.60;3.00;;;19.60;97.50;;;;;;4936507;29;20461;-68
2021/08/08 10:05:41;;;;;;;5.57;2.83;;;19.60;97.70;;;;;;4937441;29;20530;-68
2021/08/08 10:08:11;;;;;;;4.10;2.50;;;19.60;97.90;;;;;;4937164;29;20433;-69
2021/08/08 10:10:39;;;;;;;4.78;3.60;;;19.70;98.10;;;;;;4936263;29;20445;-69
2021/08/08 10:13:08;;;;;;;4.53;2.80;;;19.70;98.00;;;;;;4936757;29;20676;-69
2021/08/08 10:15:46;;;;;;;5.80;3.03;;;19.70;98.00;;;;;;4937011;29;20558;-69
2021/08/08 10:18:15;;;;;;;6.40;3.40;;;19.70;97.90;;;;;;4918213;29;20429;-70
2021/08/08 10:20:41;;;;;;;6.90;2.97;;;19.90;97.40;;;;;;4937367;29;20628;-68
2021/08/08 10:23:13;;;;;;;3.30;3.00;;;20.00;96.90;;;;;;4937004;29;20446;-68
2021/08/08 10:25:39;;;;;;;5.20;2.93;;;20.00;97.00;;;;;;4930448;29;20411;-69
2021/08/08 10:28:07;;;;;;;4.60;3.27;;;20.10;96.70;;;;;;4936908;29;20411;-67
2021/08/08 10:30:34;;;;;;;4.90;3.30;;;20.10;96.40;;;;;;4935927;29;20468;-69
2021/08/08 10:33:02;;;;;;;4.37;3.10;;;20.10;96.60;;;;;;4936491;29;20931;-68
2021/08/08 10:35:37;;;;;;;4.37;2.93;;;20.30;96.50;;;;;;4937167;29;21261;-69
2021/08/08 10:38:03;;;;;;;6.47;2.50;;;20.50;96.60;;;;;;4917635;29;20458;-69
2021/08/08 10:40:31;;;;;;;5.83;2.70;;;20.50;95.90;;;;;;4916418;29;20482;-68
2021/08/08 10:42:58;;;;;;;6.55;2.70;;;20.60;95.80;;;;;;4901992;29;20450;-69
2021/08/08 10:45:29;;;;;;;5.70;3.20;;;20.60;96.10;;;;;;4936371;29;20181;-68
2021/08/08 10:47:59;;;;;;;6.30;2.83;;;20.70;95.90;;;;;;4936571;29;20497;-68
2021/08/08 10:50:45;;;;;;;7.37;2.70;;;20.70;95.60;;;;;;4935841;29;20962;-69
2021/08/08 10:53:23;;;;;;;4.13;2.53;;;20.80;95.80;;;;;;4935627;29;20418;-69
2021/08/08 10:56:01;;;;;;;5.57;2.60;;;20.70;95.50;;;;;;4918666;29;20791;-70
2021/08/08 10:58:36;;;;;;;4.70;2.30;;;20.80;95.30;;;;;;4936251;29;20405;-67
2021/08/08 11:01:17;;;;;;;7.00;2.80;;;20.80;94.90;;;;;;4935607;29;20420;-68
2021/08/08 11:04:00;;;;;;;4.07;2.63;;;20.90;94.90;;;;;;4936620;29;20442;-69
2021/08/08 11:06:31;;;;;;;3.90;2.50;;;21.10;94.80;;;;;;4936648;29;20406;-69
2021/08/08 11:08:58;;;;;;;3.00;2.40;;;21.10;94.40;;;;;;4935111;29;20429;-70
2021/08/08 11:11:26;;;;;;;2.90;2.20;;;21.00;94.60;;;;;;4934893;29;20981;-70
2021/08/08 11:14:08;;;;;;;5.47;2.73;;;21.00;94.60;;;;;;4933107;29;20456;-69
2021/08/08 11:16:34;;;;;;;3.53;2.50;;;20.90;94.70;;;;;;4936297;29;20438;-69
2021/08/08 11:18:59;;;;;;;4.10;2.43;;;20.90;94.20;;;;;;4936412;29;20418;-68
2021/08/08 11:21:26;;;;;;;4.63;2.67;;;20.90;95.00;;;;;;4934492;29;20425;-68
2021/08/08 11:23:57;;;;;;;6.70;2.60;;;21.10;95.10;;;;;;4936162;29;20600;-70
2021/08/08 11:26:23;;;;;;;3.90;2.50;;;20.90;95.00;;;;;;4935377;29;20434;-70
2021/08/08 11:28:58;;;;;;;4.63;2.73;;;21.00;95.10;;;;;;4919823;29;20415;-70
2021/08/08 11:31:30;;;;;;;3.60;2.40;;;21.00;95.10;;;;;;4935664;29;20422;-69
2021/08/08 11:34:22;;;;;;;6.07;3.20;;;20.80;95.30;;;;;;4935167;29;20427;-70
2021/08/08 11:36:48;;;;;;;4.50;2.50;;;20.90;95.10;;;;;;4936252;29;20402;-70
2021/08/08 11:39:14;;;;;;;3.80;2.20;;;20.90;95.10;;;;;;4935483;29;20735;-71
2021/08/08 11:41:41;;;;;;;3.60;2.67;;;20.90;95.20;;;;;;4935369;29;20186;-70
2021/08/08 11:44:11;;;;;;;4.20;2.73;;;20.90;95.20;;;;;;4936521;29;20293;-70
2021/08/08 11:46:39;;;;;;;3.83;2.90;;;21.00;95.20;;;;;;4919882;29;20419;-70
2021/08/08 11:49:16;;;;;;;3.20;2.30;;;20.90;95.20;;;;;;4919792;29;20487;-69
2021/08/08 11:51:42;;;;;;;5.40;2.78;;;21.00;95.50;;;;;;4917948;29;20419;-71
2021/08/08 11:54:08;;;;;;;3.10;1.87;;;21.00;94.80;;;;;;4931626;29;20528;-71
2021/08/08 11:56:34;;;;;;;3.73;2.37;;;20.80;94.30;;;;;;4936126;29;20445;-71
2021/08/08 11:58:59;;;;;;;3.77;2.63;;;20.80;94.40;;;;;;4935835;29;20434;-71
2021/08/08 12:01:26;;;;;;;5.13;2.20;;;20.80;94.60;;;;;;4933201;29;20657;-70
2021/08/08 12:03:53;;;;;;;4.03;2.50;;;20.80;94.70;;;;;;4923272;29;20270;-71
2021/08/08 12:06:21;;;;;;;5.03;2.57;;;20.90;94.70;;;;;;4928876;29;20436;-71
2021/08/08 12:08:54;;;;;;;2.40;2.20;;;20.80;94.80;;;;;;4916134;29;20431;-71
2021/08/08 12:11:21;;;;;;;4.30;2.00;;;20.80;95.00;;;;;;4915592;29;20459;-69
2021/08/08 12:14:03;;;;;;;5.27;2.60;;;20.80;94.80;;;;;;4928926;29;20462;-71
2021/08/08 12:16:37;;;;;;;14.20;2.20;;;20.90;94.90;;;;;;4921831;29;20889;-70
2021/08/08 12:19:03;;;;;;;3.37;2.40;;;20.80;94.50;;;;;;4938382;29;20831;-71
2021/08/08 12:21:37;;;;;;;5.87;2.30;;;20.90;94.50;;;;;;4939285;29;20406;-70
2021/08/08 12:24:11;;;;;;;3.20;2.33;;;21.00;94.40;;;;;;4938892;29;20429;-70
2021/08/08 12:26:47;;;;;;;4.47;2.00;;;21.00;94.30;;;;;;4935104;29;20442;-70
2021/08/08 12:29:13;;;;;;;2.97;1.70;;;21.10;94.20;;;;;;4920007;29;20806;-70
2021/08/08 12:31:40;;;;;;;3.40;1.83;;;21.20;93.60;;;;;;4919936;29;20435;-69
2021/08/08 12:34:09;;;;;;;4.80;2.33;;;21.20;93.80;;;;;;4935474;29;20660;-69
2021/08/08 12:36:40;;;;;;;3.40;2.13;;;21.10;93.80;;;;;;4938722;29;20434;-69
2021/08/08 12:39:06;;;;;;;1.80;1.70;;;21.00;93.90;;;;;;4939542;29;20828;-70
2021/08/08 12:41:39;;;;;;;5.07;2.13;;;21.00;93.90;;;;;;4938766;29;20434;-70
2021/08/08 12:44:05;;;;;;;3.57;2.60;;;20.80;94.50;;;;;;4939166;29;20422;-70
2021/08/08 12:46:34;;;;;;;2.83;2.30;;;20.80;95.20;;;;;;4937492;29;20426;-70